sensor_id;sensor_type;location;lat;lon;timestamp;P1;durP1;ratioP1;P2;durP2;ratioP2
17686;SDS011;8962;52.538;13.266;2023-07-24T00:01:14;5.38;;;3.50;;
17686;SDS011;8962;52.538;13.266;2023-07-24T00:03:42;5.50;;;3.63;;
17686;SDS011;8962;52.538;13.266;2023-07-24T00:06:09;5.85;;;3.67;;
17686;SDS011;8962;52.538;13.266;2023-07-24T00:08:37;5.63;;;3.63;;
17686;SDS011;8962;52.538;13.266;2023-07-24T00:11:06;6.80;;;3.45;;
17686;SDS011;8962;52.538;13.266;2023-07-24T00:13:33;4.47;;;3.10;;
17686;SDS011;8962;52.538;13.266;2023-07-24T00:16:04;5.13;;;3.67;;
17686;SDS011;8962;52.538;13.266;2023-07-24T00:18:33;4.95;;;3.15;;
17686;SDS011;8962;52.538;13.266;2023-07-24T00:21:00;4.57;;;3.15;;
17686;SDS011;8962;52.538;13.266;2023-07-24T00:23:27;5.40;;;3.30;;
17686;SDS011;8962;52.538;13.266;2023-07-24T00:25:54;5.35;;;3.28;;
17686;SDS011;8962;52.538;13.266;2023-07-24T00:28:22;5.72;;;3.28;;
17686;SDS011;8962;52.538;13.266;2023-07-24T00:30:49;6.10;;;3.38;;
17686;SDS011;8962;52.538;13.266;2023-07-24T00:33:19;6.78;;;3.50;;
17686;SDS011;8962;52.538;13.266;2023-07-24T00:35:46;5.93;;;3.30;;
17686;SDS011;8962;52.538;13.266;2023-07-24T00:38:13;5.07;;;3.35;;
17686;SDS011;8962;52.538;13.266;2023-07-24T00:40:40;6.65;;;3.35;;
17686;SDS011;8962;52.538;13.266;2023-07-24T00:43:08;5.93;;;3.13;;
17686;SDS011;8962;52.538;13.266;2023-07-24T00:45:35;7.10;;;3.80;;
17686;SDS011;8962;52.538;13.266;2023-07-24T00:48:02;4.47;;;3.40;;
17686;SDS011;8962;52.538;13.266;2023-07-24T00:50:31;5.15;;;3.50;;
17686;SDS011;8962;52.538;13.266;2023-07-24T00:52:58;10.20;;;3.92;;
17686;SDS011;8962;52.538;13.266;2023-07-24T00:55:25;5.28;;;3.55;;
17686;SDS011;8962;52.538;13.266;2023-07-24T00:57:52;4.65;;;3.20;;
17686;SDS011;8962;52.538;13.266;2023-07-24T01:00:20;4.95;;;3.03;;
17686;SDS011;8962;52.538;13.266;2023-07-24T01:02:48;4.43;;;3.08;;
17686;SDS011;8962;52.538;13.266;2023-07-24T01:05:16;4.50;;;3.30;;
17686;SDS011;8962;52.538;13.266;2023-07-24T01:07:44;4.53;;;3.20;;
17686;SDS011;8962;52.538;13.266;2023-07-24T01:10:12;4.47;;;3.30;;
17686;SDS011;8962;52.538;13.266;2023-07-24T01:12:40;4.95;;;3.28;;
17686;SDS011;8962;52.538;13.266;2023-07-24T01:15:19;5.82;;;3.40;;
17686;SDS011;8962;52.538;13.266;2023-07-24T01:17:53;14.73;;;3.40;;
17686;SDS011;8962;52.538;13.266;2023-07-24T01:20:24;4.90;;;3.00;;
17686;SDS011;8962;52.538;13.266;2023-07-24T01:23:11;9.45;;;3.88;;
17686;SDS011;8962;52.538;13.266;2023-07-24T01:25:55;3.80;;;3.03;;
17686;SDS011;8962;52.538;13.266;2023-07-24T01:28:24;12.75;;;3.78;;
17686;SDS011;8962;52.538;13.266;2023-07-24T01:30:52;6.18;;;3.30;;
17686;SDS011;8962;52.538;13.266;2023-07-24T01:33:20;4.80;;;3.30;;
17686;SDS011;8962;52.538;13.266;2023-07-24T01:35:48;7.10;;;3.55;;
17686;SDS011;8962;52.538;13.266;2023-07-24T01:38:18;6.32;;;3.53;;
17686;SDS011;8962;52.538;13.266;2023-07-24T01:40:45;4.95;;;3.10;;
17686;SDS011;8962;52.538;13.266;2023-07-24T01:43:15;6.53;;;3.10;;
17686;SDS011;8962;52.538;13.266;2023-07-24T01:45:42;4.63;;;3.20;;
17686;SDS011;8962;52.538;13.266;2023-07-24T01:48:09;4.80;;;3.33;;
17686;SDS011;8962;52.538;13.266;2023-07-24T01:50:36;3.70;;;3.05;;
17686;SDS011;8962;52.538;13.266;2023-07-24T01:53:04;4.00;;;2.90;;
17686;SDS011;8962;52.538;13.266;2023-07-24T01:55:31;5.25;;;2.72;;
17686;SDS011;8962;52.538;13.266;2023-07-24T01:57:58;7.15;;;3.10;;
17686;SDS011;8962;52.538;13.266;2023-07-24T02:00:29;5.07;;;2.88;;
17686;SDS011;8962;52.538;13.266;2023-07-24T02:02:57;6.72;;;3.25;;
17686;SDS011;8962;52.538;13.266;2023-07-24T02:05:25;4.05;;;2.83;;
17686;SDS011;8962;52.538;13.266;2023-07-24T02:07:52;4.78;;;2.83;;
17686;SDS011;8962;52.538;13.266;2023-07-24T02:10:20;4.55;;;3.13;;
17686;SDS011;8962;52.538;13.266;2023-07-24T02:12:47;4.90;;;2.80;;
17686;SDS011;8962;52.538;13.266;2023-07-24T02:15:14;3.90;;;3.00;;
17686;SDS011;8962;52.538;13.266;2023-07-24T02:17:45;2.90;;;2.45;;
17686;SDS011;8962;52.538;13.266;2023-07-24T02:20:13;4.65;;;2.88;;
17686;SDS011;8962;52.538;13.266;2023-07-24T02:22:40;4.57;;;3.00;;
17686;SDS011;8962;52.538;13.266;2023-07-24T02:25:07;3.75;;;2.80;;
17686;SDS011;8962;52.538;13.266;2023-07-24T02:27:35;5.28;;;2.83;;
17686;SDS011;8962;52.538;13.266;2023-07-24T02:30:03;3.75;;;2.80;;
17686;SDS011;8962;52.538;13.266;2023-07-24T02:32:31;5.30;;;2.95;;
17686;SDS011;8962;52.538;13.266;2023-07-24T02:35:01;4.40;;;3.10;;
17686;SDS011;8962;52.538;13.266;2023-07-24T02:37:28;3.90;;;2.92;;
17686;SDS011;8962;52.538;13.266;2023-07-24T02:39:56;5.57;;;3.17;;
17686;SDS011;8962;52.538;13.266;2023-07-24T02:42:24;4.18;;;2.97;;
17686;SDS011;8962;52.538;13.266;2023-07-24T02:44:51;5.20;;;3.13;;
17686;SDS011;8962;52.538;13.266;2023-07-24T02:47:18;4.53;;;3.08;;
17686;SDS011;8962;52.538;13.266;2023-07-24T02:49:46;5.38;;;3.00;;
17686;SDS011;8962;52.538;13.266;2023-07-24T02:52:14;4.93;;;3.00;;
17686;SDS011;8962;52.538;13.266;2023-07-24T02:54:42;4.78;;;3.10;;
17686;SDS011;8962;52.538;13.266;2023-07-24T02:57:09;5.97;;;2.95;;
17686;SDS011;8962;52.538;13.266;2023-07-24T02:59:39;4.40;;;3.20;;
17686;SDS011;8962;52.538;13.266;2023-07-24T03:02:06;4.88;;;2.80;;
17686;SDS011;8962;52.538;13.266;2023-07-24T03:04:35;4.25;;;2.75;;
17686;SDS011;8962;52.538;13.266;2023-07-24T03:07:03;7.60;;;3.05;;
17686;SDS011;8962;52.538;13.266;2023-07-24T03:09:33;5.25;;;2.92;;
17686;SDS011;8962;52.538;13.266;2023-07-24T03:12:01;4.57;;;2.78;;
17686;SDS011;8962;52.538;13.266;2023-07-24T03:14:28;6.00;;;3.25;;
17686;SDS011;8962;52.538;13.266;2023-07-24T03:16:55;6.07;;;2.88;;
17686;SDS011;8962;52.538;13.266;2023-07-24T03:19:23;4.95;;;2.97;;
17686;SDS011;8962;52.538;13.266;2023-07-24T03:21:52;5.75;;;3.25;;
17686;SDS011;8962;52.538;13.266;2023-07-24T03:24:22;4.72;;;2.95;;
17686;SDS011;8962;52.538;13.266;2023-07-24T03:26:51;4.10;;;2.85;;
17686;SDS011;8962;52.538;13.266;2023-07-24T03:29:17;3.42;;;2.63;;
17686;SDS011;8962;52.538;13.266;2023-07-24T03:31:44;4.10;;;2.80;;
17686;SDS011;8962;52.538;13.266;2023-07-24T03:34:12;4.80;;;2.70;;
17686;SDS011;8962;52.538;13.266;2023-07-24T03:36:40;6.85;;;3.20;;
17686;SDS011;8962;52.538;13.266;2023-07-24T03:39:09;5.05;;;2.53;;
17686;SDS011;8962;52.538;13.266;2023-07-24T03:41:37;4.68;;;2.40;;
17686;SDS011;8962;52.538;13.266;2023-07-24T03:44:07;3.65;;;2.60;;
17686;SDS011;8962;52.538;13.266;2023-07-24T03:46:40;3.17;;;2.30;;
17686;SDS011;8962;52.538;13.266;2023-07-24T03:49:07;4.43;;;2.38;;
17686;SDS011;8962;52.538;13.266;2023-07-24T03:51:35;3.95;;;2.42;;
17686;SDS011;8962;52.538;13.266;2023-07-24T03:54:02;4.72;;;2.20;;
17686;SDS011;8962;52.538;13.266;2023-07-24T03:56:30;3.33;;;2.70;;
17686;SDS011;8962;52.538;13.266;2023-07-24T03:58:57;4.05;;;2.47;;
17686;SDS011;8962;52.538;13.266;2023-07-24T04:01:25;5.25;;;3.00;;
17686;SDS011;8962;52.538;13.266;2023-07-24T04:03:52;5.78;;;2.80;;
17686;SDS011;8962;52.538;13.266;2023-07-24T04:06:20;2.95;;;2.30;;
17686;SDS011;8962;52.538;13.266;2023-07-24T04:08:47;2.80;;;2.05;;
17686;SDS011;8962;52.538;13.266;2023-07-24T04:11:15;4.32;;;2.78;;
17686;SDS011;8962;52.538;13.266;2023-07-24T04:13:42;3.80;;;2.53;;
17686;SDS011;8962;52.538;13.266;2023-07-24T04:16:10;3.25;;;2.20;;
17686;SDS011;8962;52.538;13.266;2023-07-24T04:18:38;2.80;;;1.88;;
17686;SDS011;8962;52.538;13.266;2023-07-24T04:21:06;3.72;;;2.55;;
17686;SDS011;8962;52.538;13.266;2023-07-24T04:23:33;3.92;;;2.30;;
17686;SDS011;8962;52.538;13.266;2023-07-24T04:26:00;4.00;;;2.20;;
17686;SDS011;8962;52.538;13.266;2023-07-24T04:28:27;3.35;;;2.45;;
17686;SDS011;8962;52.538;13.266;2023-07-24T04:30:55;3.63;;;2.35;;
17686;SDS011;8962;52.538;13.266;2023-07-24T04:33:25;4.38;;;2.30;;
17686;SDS011;8962;52.538;13.266;2023-07-24T04:35:54;4.95;;;2.38;;
17686;SDS011;8962;52.538;13.266;2023-07-24T04:38:21;4.10;;;2.53;;
17686;SDS011;8962;52.538;13.266;2023-07-24T04:40:48;2.50;;;2.00;;
17686;SDS011;8962;52.538;13.266;2023-07-24T04:43:16;5.82;;;2.40;;
17686;SDS011;8962;52.538;13.266;2023-07-24T04:45:43;3.92;;;2.00;;
17686;SDS011;8962;52.538;13.266;2023-07-24T04:48:10;1.95;;;1.73;;
17686;SDS011;8962;52.538;13.266;2023-07-24T04:50:37;3.53;;;1.98;;
17686;SDS011;8962;52.538;13.266;2023-07-24T04:53:06;2.83;;;1.92;;
17686;SDS011;8962;52.538;13.266;2023-07-24T04:55:33;2.70;;;1.90;;
17686;SDS011;8962;52.538;13.266;2023-07-24T04:58:00;4.47;;;2.20;;
17686;SDS011;8962;52.538;13.266;2023-07-24T05:00:27;3.25;;;1.90;;
17686;SDS011;8962;52.538;13.266;2023-07-24T05:02:55;3.90;;;2.15;;
17686;SDS011;8962;52.538;13.266;2023-07-24T05:05:22;4.03;;;2.08;;
17686;SDS011;8962;52.538;13.266;2023-07-24T05:07:49;4.20;;;2.15;;
17686;SDS011;8962;52.538;13.266;2023-07-24T05:10:17;3.63;;;2.47;;
17686;SDS011;8962;52.538;13.266;2023-07-24T05:12:45;5.15;;;1.90;;
17686;SDS011;8962;52.538;13.266;2023-07-24T05:15:12;3.72;;;2.10;;
17686;SDS011;8962;52.538;13.266;2023-07-24T05:17:42;2.85;;;1.90;;
17686;SDS011;8962;52.538;13.266;2023-07-24T05:20:09;3.30;;;2.17;;
17686;SDS011;8962;52.538;13.266;2023-07-24T05:22:37;5.97;;;2.55;;
17686;SDS011;8962;52.538;13.266;2023-07-24T05:25:05;5.38;;;2.38;;
17686;SDS011;8962;52.538;13.266;2023-07-24T05:27:36;4.75;;;2.10;;
17686;SDS011;8962;52.538;13.266;2023-07-24T05:30:03;5.30;;;2.33;;
17686;SDS011;8962;52.538;13.266;2023-07-24T05:32:32;4.72;;;2.40;;
17686;SDS011;8962;52.538;13.266;2023-07-24T05:34:59;4.65;;;2.10;;
17686;SDS011;8962;52.538;13.266;2023-07-24T05:37:26;2.80;;;1.80;;
17686;SDS011;8962;52.538;13.266;2023-07-24T05:39:53;2.88;;;1.65;;
17686;SDS011;8962;52.538;13.266;2023-07-24T05:42:21;2.90;;;1.80;;
17686;SDS011;8962;52.538;13.266;2023-07-24T05:44:50;1.75;;;1.52;;
17686;SDS011;8962;52.538;13.266;2023-07-24T05:47:17;4.72;;;1.65;;
17686;SDS011;8962;52.538;13.266;2023-07-24T05:49:44;3.58;;;1.90;;
17686;SDS011;8962;52.538;13.266;2023-07-24T05:52:11;3.13;;;1.50;;
17686;SDS011;8962;52.538;13.266;2023-07-24T05:54:39;2.08;;;1.70;;
17686;SDS011;8962;52.538;13.266;2023-07-24T05:57:06;1.95;;;1.70;;
17686;SDS011;8962;52.538;13.266;2023-07-24T05:59:35;2.45;;;1.85;;
17686;SDS011;8962;52.538;13.266;2023-07-24T06:02:04;2.00;;;1.80;;
17686;SDS011;8962;52.538;13.266;2023-07-24T06:04:35;2.92;;;1.98;;
17686;SDS011;8962;52.538;13.266;2023-07-24T06:07:03;2.85;;;1.90;;
17686;SDS011;8962;52.538;13.266;2023-07-24T06:09:30;2.35;;;1.85;;
17686;SDS011;8962;52.538;13.266;2023-07-24T06:11:57;2.88;;;1.88;;
17686;SDS011;8962;52.538;13.266;2023-07-24T06:14:25;5.10;;;2.00;;
17686;SDS011;8962;52.538;13.266;2023-07-24T06:16:52;2.60;;;1.85;;
17686;SDS011;8962;52.538;13.266;2023-07-24T06:19:21;2.78;;;1.80;;
17686;SDS011;8962;52.538;13.266;2023-07-24T06:21:49;5.65;;;2.25;;
17686;SDS011;8962;52.538;13.266;2023-07-24T06:24:16;3.67;;;2.10;;
17686;SDS011;8962;52.538;13.266;2023-07-24T06:26:46;2.22;;;2.00;;
17686;SDS011;8962;52.538;13.266;2023-07-24T06:29:13;2.75;;;2.10;;
17686;SDS011;8962;52.538;13.266;2023-07-24T06:31:42;2.78;;;2.17;;
17686;SDS011;8962;52.538;13.266;2023-07-24T06:34:10;4.15;;;2.38;;
17686;SDS011;8962;52.538;13.266;2023-07-24T06:36:39;5.18;;;1.80;;
17686;SDS011;8962;52.538;13.266;2023-07-24T06:39:06;4.40;;;2.40;;
17686;SDS011;8962;52.538;13.266;2023-07-24T06:41:34;3.28;;;2.13;;
17686;SDS011;8962;52.538;13.266;2023-07-24T06:44:06;4.05;;;2.20;;
17686;SDS011;8962;52.538;13.266;2023-07-24T06:46:33;2.55;;;2.20;;
17686;SDS011;8962;52.538;13.266;2023-07-24T06:49:00;3.58;;;2.10;;
17686;SDS011;8962;52.538;13.266;2023-07-24T06:51:28;4.22;;;2.20;;
17686;SDS011;8962;52.538;13.266;2023-07-24T06:53:59;4.70;;;2.47;;
17686;SDS011;8962;52.538;13.266;2023-07-24T06:56:29;2.30;;;2.10;;
17686;SDS011;8962;52.538;13.266;2023-07-24T06:58:58;2.83;;;2.08;;
17686;SDS011;8962;52.538;13.266;2023-07-24T07:01:25;3.92;;;2.10;;
17686;SDS011;8962;52.538;13.266;2023-07-24T07:03:53;3.25;;;2.20;;
17686;SDS011;8962;52.538;13.266;2023-07-24T07:06:23;4.63;;;2.45;;
17686;SDS011;8962;52.538;13.266;2023-07-24T07:08:50;2.38;;;2.13;;
17686;SDS011;8962;52.538;13.266;2023-07-24T07:11:19;2.55;;;1.98;;
17686;SDS011;8962;52.538;13.266;2023-07-24T07:13:57;2.90;;;2.15;;
17686;SDS011;8962;52.538;13.266;2023-07-24T07:16:24;4.82;;;2.53;;
17686;SDS011;8962;52.538;13.266;2023-07-24T07:18:55;2.90;;;2.22;;
17686;SDS011;8962;52.538;13.266;2023-07-24T07:21:23;2.38;;;2.15;;
17686;SDS011;8962;52.538;13.266;2023-07-24T07:23:53;3.60;;;2.13;;
17686;SDS011;8962;52.538;13.266;2023-07-24T07:26:27;2.97;;;2.20;;
17686;SDS011;8962;52.538;13.266;2023-07-24T07:28:56;3.92;;;2.47;;
17686;SDS011;8962;52.538;13.266;2023-07-24T07:31:24;3.15;;;2.70;;
17686;SDS011;8962;52.538;13.266;2023-07-24T07:33:51;3.33;;;2.30;;
17686;SDS011;8962;52.538;13.266;2023-07-24T07:36:21;3.00;;;2.22;;
17686;SDS011;8962;52.538;13.266;2023-07-24T07:38:51;2.47;;;2.20;;
17686;SDS011;8962;52.538;13.266;2023-07-24T07:41:18;3.30;;;2.38;;
17686;SDS011;8962;52.538;13.266;2023-07-24T07:43:49;3.63;;;2.70;;
17686;SDS011;8962;52.538;13.266;2023-07-24T07:46:16;4.22;;;2.20;;
17686;SDS011;8962;52.538;13.266;2023-07-24T07:48:44;2.78;;;2.40;;
17686;SDS011;8962;52.538;13.266;2023-07-24T07:51:11;3.13;;;2.63;;
17686;SDS011;8962;52.538;13.266;2023-07-24T07:53:40;4.40;;;2.40;;
17686;SDS011;8962;52.538;13.266;2023-07-24T07:56:10;2.58;;;2.05;;
17686;SDS011;8962;52.538;13.266;2023-07-24T07:58:38;2.53;;;2.10;;
17686;SDS011;8962;52.538;13.266;2023-07-24T08:01:08;2.75;;;2.00;;
17686;SDS011;8962;52.538;13.266;2023-07-24T08:03:44;2.50;;;2.20;;
17686;SDS011;8962;52.538;13.266;2023-07-24T08:06:12;3.03;;;2.10;;
17686;SDS011;8962;52.538;13.266;2023-07-24T08:08:39;3.53;;;2.50;;
17686;SDS011;8962;52.538;13.266;2023-07-24T08:11:12;2.28;;;1.90;;
17686;SDS011;8962;52.538;13.266;2023-07-24T08:13:40;2.70;;;2.08;;
17686;SDS011;8962;52.538;13.266;2023-07-24T08:16:13;3.30;;;2.13;;
17686;SDS011;8962;52.538;13.266;2023-07-24T08:18:44;2.10;;;1.90;;
17686;SDS011;8962;52.538;13.266;2023-07-24T08:21:12;1.98;;;1.75;;
17686;SDS011;8962;52.538;13.266;2023-07-24T08:23:40;2.20;;;2.00;;
17686;SDS011;8962;52.538;13.266;2023-07-24T08:26:08;2.47;;;2.20;;
17686;SDS011;8962;52.538;13.266;2023-07-24T08:28:37;3.40;;;2.00;;
17686;SDS011;8962;52.538;13.266;2023-07-24T08:31:08;3.70;;;2.10;;
17686;SDS011;8962;52.538;13.266;2023-07-24T08:33:38;2.55;;;2.00;;
17686;SDS011;8962;52.538;13.266;2023-07-24T08:36:09;2.35;;;2.10;;
17686;SDS011;8962;52.538;13.266;2023-07-24T08:38:37;4.22;;;2.28;;
17686;SDS011;8962;52.538;13.266;2023-07-24T08:41:06;3.97;;;2.00;;
17686;SDS011;8962;52.538;13.266;2023-07-24T08:43:35;4.22;;;2.28;;
17686;SDS011;8962;52.538;13.266;2023-07-24T08:46:03;2.50;;;2.20;;
17686;SDS011;8962;52.538;13.266;2023-07-24T08:48:32;2.78;;;2.35;;
17686;SDS011;8962;52.538;13.266;2023-07-24T08:51:04;5.57;;;2.35;;
17686;SDS011;8962;52.538;13.266;2023-07-24T08:53:41;2.40;;;1.95;;
17686;SDS011;8962;52.538;13.266;2023-07-24T08:56:13;2.63;;;2.20;;
17686;SDS011;8962;52.538;13.266;2023-07-24T08:58:41;3.03;;;2.10;;
17686;SDS011;8962;52.538;13.266;2023-07-24T09:01:09;5.28;;;2.30;;
17686;SDS011;8962;52.538;13.266;2023-07-24T09:03:36;3.75;;;2.20;;
17686;SDS011;8962;52.538;13.266;2023-07-24T09:06:08;2.83;;;2.30;;
17686;SDS011;8962;52.538;13.266;2023-07-24T09:08:36;3.10;;;2.30;;
17686;SDS011;8962;52.538;13.266;2023-07-24T09:11:05;3.33;;;1.92;;
17686;SDS011;8962;52.538;13.266;2023-07-24T09:13:35;2.65;;;2.17;;
17686;SDS011;8962;52.538;13.266;2023-07-24T09:16:03;3.58;;;2.35;;
17686;SDS011;8962;52.538;13.266;2023-07-24T09:18:38;3.13;;;2.10;;
17686;SDS011;8962;52.538;13.266;2023-07-24T09:21:12;3.80;;;2.22;;
17686;SDS011;8962;52.538;13.266;2023-07-24T09:23:39;3.03;;;2.42;;
17686;SDS011;8962;52.538;13.266;2023-07-24T09:26:10;2.53;;;2.10;;
17686;SDS011;8962;52.538;13.266;2023-07-24T09:28:37;6.05;;;2.75;;
17686;SDS011;8962;52.538;13.266;2023-07-24T09:31:05;3.38;;;2.58;;
17686;SDS011;8962;52.538;13.266;2023-07-24T09:33:36;9.52;;;7.32;;
17686;SDS011;8962;52.538;13.266;2023-07-24T09:36:04;5.85;;;2.97;;
17686;SDS011;8962;52.538;13.266;2023-07-24T09:38:38;4.03;;;2.53;;
17686;SDS011;8962;52.538;13.266;2023-07-24T09:41:05;2.33;;;1.88;;
17686;SDS011;8962;52.538;13.266;2023-07-24T09:43:33;4.03;;;2.45;;
17686;SDS011;8962;52.538;13.266;2023-07-24T09:46:01;3.40;;;2.05;;
17686;SDS011;8962;52.538;13.266;2023-07-24T09:48:32;3.40;;;2.10;;
17686;SDS011;8962;52.538;13.266;2023-07-24T09:51:00;2.70;;;2.40;;
17686;SDS011;8962;52.538;13.266;2023-07-24T09:53:31;5.50;;;2.72;;
17686;SDS011;8962;52.538;13.266;2023-07-24T09:56:04;2.80;;;2.30;;
17686;SDS011;8962;52.538;13.266;2023-07-24T09:58:34;2.50;;;2.10;;
17686;SDS011;8962;52.538;13.266;2023-07-24T10:01:04;3.03;;;2.50;;
17686;SDS011;8962;52.538;13.266;2023-07-24T10:03:32;3.72;;;2.17;;
17686;SDS011;8962;52.538;13.266;2023-07-24T10:06:04;3.47;;;2.67;;
17686;SDS011;8962;52.538;13.266;2023-07-24T10:08:31;3.97;;;2.70;;
17686;SDS011;8962;52.538;13.266;2023-07-24T10:10:59;3.47;;;2.35;;
17686;SDS011;8962;52.538;13.266;2023-07-24T10:13:27;3.38;;;2.45;;
17686;SDS011;8962;52.538;13.266;2023-07-24T10:15:55;5.32;;;2.45;;
17686;SDS011;8962;52.538;13.266;2023-07-24T10:18:27;4.40;;;2.40;;
17686;SDS011;8962;52.538;13.266;2023-07-24T10:21:00;3.38;;;2.58;;
17686;SDS011;8962;52.538;13.266;2023-07-24T10:23:28;4.43;;;2.55;;
17686;SDS011;8962;52.538;13.266;2023-07-24T10:26:01;3.05;;;2.50;;
17686;SDS011;8962;52.538;13.266;2023-07-24T10:28:31;5.05;;;2.67;;
17686;SDS011;8962;52.538;13.266;2023-07-24T10:31:05;4.18;;;2.55;;
17686;SDS011;8962;52.538;13.266;2023-07-24T10:33:35;5.45;;;2.80;;
17686;SDS011;8962;52.538;13.266;2023-07-24T10:36:10;3.85;;;3.42;;
17686;SDS011;8962;52.538;13.266;2023-07-24T10:38:40;5.25;;;3.45;;
17686;SDS011;8962;52.538;13.266;2023-07-24T10:41:09;7.03;;;3.35;;
17686;SDS011;8962;52.538;13.266;2023-07-24T10:43:43;5.45;;;2.90;;
17686;SDS011;8962;52.538;13.266;2023-07-24T10:46:11;5.10;;;3.30;;
17686;SDS011;8962;52.538;13.266;2023-07-24T10:48:41;4.10;;;3.15;;
17686;SDS011;8962;52.538;13.266;2023-07-24T10:51:12;23.90;;;8.55;;
17686;SDS011;8962;52.538;13.266;2023-07-24T10:53:41;4.85;;;3.40;;
17686;SDS011;8962;52.538;13.266;2023-07-24T10:56:14;5.40;;;3.53;;
17686;SDS011;8962;52.538;13.266;2023-07-24T10:58:43;5.35;;;3.33;;
17686;SDS011;8962;52.538;13.266;2023-07-24T11:01:11;5.65;;;4.07;;
17686;SDS011;8962;52.538;13.266;2023-07-24T11:03:40;5.28;;;3.65;;
17686;SDS011;8962;52.538;13.266;2023-07-24T11:06:11;5.10;;;3.85;;
17686;SDS011;8962;52.538;13.266;2023-07-24T11:08:41;5.75;;;3.70;;
17686;SDS011;8962;52.538;13.266;2023-07-24T11:11:17;5.72;;;4.13;;
17686;SDS011;8962;52.538;13.266;2023-07-24T11:13:46;5.07;;;3.78;;
17686;SDS011;8962;52.538;13.266;2023-07-24T11:16:13;5.68;;;3.92;;
17686;SDS011;8962;52.538;13.266;2023-07-24T11:18:45;5.30;;;4.10;;
17686;SDS011;8962;52.538;13.266;2023-07-24T11:21:14;6.63;;;4.20;;
17686;SDS011;8962;52.538;13.266;2023-07-24T11:23:47;5.47;;;3.83;;
17686;SDS011;8962;52.538;13.266;2023-07-24T11:26:17;5.30;;;3.80;;
17686;SDS011;8962;52.538;13.266;2023-07-24T11:28:47;6.82;;;4.47;;
17686;SDS011;8962;52.538;13.266;2023-07-24T11:31:15;7.13;;;3.97;;
17686;SDS011;8962;52.538;13.266;2023-07-24T11:33:44;8.18;;;4.00;;
17686;SDS011;8962;52.538;13.266;2023-07-24T11:36:18;6.15;;;4.00;;
17686;SDS011;8962;52.538;13.266;2023-07-24T11:38:47;5.07;;;3.78;;
17686;SDS011;8962;52.538;13.266;2023-07-24T11:41:15;7.68;;;4.25;;
17686;SDS011;8962;52.538;13.266;2023-07-24T11:43:49;7.35;;;4.53;;
17686;SDS011;8962;52.538;13.266;2023-07-24T11:46:23;7.15;;;4.50;;
17686;SDS011;8962;52.538;13.266;2023-07-24T11:48:51;8.05;;;4.15;;
17686;SDS011;8962;52.538;13.266;2023-07-24T11:51:22;5.20;;;3.80;;
17686;SDS011;8962;52.538;13.266;2023-07-24T11:53:52;6.35;;;4.10;;
17686;SDS011;8962;52.538;13.266;2023-07-24T11:56:33;7.13;;;4.60;;
17686;SDS011;8962;52.538;13.266;2023-07-24T11:59:10;7.72;;;4.45;;
17686;SDS011;8962;52.538;13.266;2023-07-24T12:01:40;9.55;;;5.35;;
17686;SDS011;8962;52.538;13.266;2023-07-24T12:04:08;5.13;;;4.13;;
17686;SDS011;8962;52.538;13.266;2023-07-24T12:06:37;9.60;;;4.22;;
17686;SDS011;8962;52.538;13.266;2023-07-24T12:09:07;10.45;;;4.88;;
17686;SDS011;8962;52.538;13.266;2023-07-24T12:11:40;11.45;;;4.10;;
17686;SDS011;8962;52.538;13.266;2023-07-24T12:14:11;8.07;;;4.13;;
17686;SDS011;8962;52.538;13.266;2023-07-24T12:16:39;13.75;;;4.45;;
17686;SDS011;8962;52.538;13.266;2023-07-24T12:19:09;8.50;;;4.10;;
17686;SDS011;8962;52.538;13.266;2023-07-24T12:21:40;6.32;;;4.05;;
17686;SDS011;8962;52.538;13.266;2023-07-24T12:24:10;7.88;;;4.13;;
17686;SDS011;8962;52.538;13.266;2023-07-24T12:26:39;10.05;;;4.93;;
17686;SDS011;8962;52.538;13.266;2023-07-24T12:29:08;6.78;;;4.50;;
17686;SDS011;8962;52.538;13.266;2023-07-24T12:31:42;8.55;;;4.10;;
17686;SDS011;8962;52.538;13.266;2023-07-24T12:34:10;4.65;;;3.67;;
17686;SDS011;8962;52.538;13.266;2023-07-24T12:36:38;7.80;;;3.45;;
17686;SDS011;8962;52.538;13.266;2023-07-24T12:39:05;7.65;;;3.85;;
17686;SDS011;8962;52.538;13.266;2023-07-24T12:41:33;4.75;;;3.15;;
17686;SDS011;8962;52.538;13.266;2023-07-24T12:44:02;5.20;;;3.20;;
17686;SDS011;8962;52.538;13.266;2023-07-24T12:46:34;5.55;;;3.30;;
17686;SDS011;8962;52.538;13.266;2023-07-24T12:49:02;5.30;;;3.30;;
17686;SDS011;8962;52.538;13.266;2023-07-24T12:51:33;5.18;;;2.80;;
17686;SDS011;8962;52.538;13.266;2023-07-24T12:54:08;3.95;;;3.08;;
17686;SDS011;8962;52.538;13.266;2023-07-24T12:56:35;5.20;;;3.10;;
17686;SDS011;8962;52.538;13.266;2023-07-24T12:59:02;7.45;;;3.38;;
17686;SDS011;8962;52.538;13.266;2023-07-24T13:01:34;5.70;;;3.20;;
17686;SDS011;8962;52.538;13.266;2023-07-24T13:04:04;6.05;;;3.03;;
17686;SDS011;8962;52.538;13.266;2023-07-24T13:06:35;6.55;;;2.80;;
17686;SDS011;8962;52.538;13.266;2023-07-24T13:09:03;6.85;;;3.30;;
17686;SDS011;8962;52.538;13.266;2023-07-24T13:11:31;5.88;;;3.05;;
17686;SDS011;8962;52.538;13.266;2023-07-24T13:13:58;8.45;;;3.13;;
17686;SDS011;8962;52.538;13.266;2023-07-24T13:16:26;4.78;;;3.45;;
17686;SDS011;8962;52.538;13.266;2023-07-24T13:18:56;6.13;;;3.55;;
17686;SDS011;8962;52.538;13.266;2023-07-24T13:21:27;4.65;;;3.40;;
17686;SDS011;8962;52.538;13.266;2023-07-24T13:23:54;6.57;;;3.55;;
17686;SDS011;8962;52.538;13.266;2023-07-24T13:26:22;10.68;;;3.53;;
17686;SDS011;8962;52.538;13.266;2023-07-24T13:28:50;5.30;;;3.33;;
17686;SDS011;8962;52.538;13.266;2023-07-24T13:31:20;6.47;;;3.30;;
17686;SDS011;8962;52.538;13.266;2023-07-24T13:33:50;5.82;;;3.30;;
17686;SDS011;8962;52.538;13.266;2023-07-24T13:36:24;5.13;;;3.40;;
17686;SDS011;8962;52.538;13.266;2023-07-24T13:38:52;7.13;;;3.28;;
17686;SDS011;8962;52.538;13.266;2023-07-24T13:41:20;4.25;;;3.35;;
17686;SDS011;8962;52.538;13.266;2023-07-24T13:43:47;9.38;;;3.10;;
17686;SDS011;8962;52.538;13.266;2023-07-24T13:46:14;5.20;;;3.28;;
17686;SDS011;8962;52.538;13.266;2023-07-24T13:48:42;5.93;;;3.30;;
17686;SDS011;8962;52.538;13.266;2023-07-24T13:51:11;5.28;;;3.10;;
17686;SDS011;8962;52.538;13.266;2023-07-24T13:53:40;7.40;;;3.08;;
17686;SDS011;8962;52.538;13.266;2023-07-24T13:56:08;5.18;;;3.15;;
17686;SDS011;8962;52.538;13.266;2023-07-24T13:58:37;4.97;;;3.13;;
17686;SDS011;8962;52.538;13.266;2023-07-24T14:01:05;6.22;;;2.80;;
17686;SDS011;8962;52.538;13.266;2023-07-24T14:03:35;7.18;;;3.13;;
17686;SDS011;8962;52.538;13.266;2023-07-24T14:06:04;6.45;;;3.30;;
17686;SDS011;8962;52.538;13.266;2023-07-24T14:08:34;6.45;;;3.28;;
17686;SDS011;8962;52.538;13.266;2023-07-24T14:11:03;3.65;;;3.15;;
17686;SDS011;8962;52.538;13.266;2023-07-24T14:13:30;5.65;;;3.10;;
17686;SDS011;8962;52.538;13.266;2023-07-24T14:15:59;4.82;;;3.10;;
17686;SDS011;8962;52.538;13.266;2023-07-24T14:18:26;5.50;;;3.20;;
17686;SDS011;8962;52.538;13.266;2023-07-24T14:20:54;5.85;;;3.35;;
17686;SDS011;8962;52.538;13.266;2023-07-24T14:23:21;4.68;;;3.40;;
17686;SDS011;8962;52.538;13.266;2023-07-24T14:25:49;5.72;;;3.83;;
17686;SDS011;8962;52.538;13.266;2023-07-24T14:28:19;22.02;;;11.25;;
17686;SDS011;8962;52.538;13.266;2023-07-24T14:30:46;10.85;;;5.78;;
17686;SDS011;8962;52.538;13.266;2023-07-24T14:33:14;5.78;;;4.00;;
17686;SDS011;8962;52.538;13.266;2023-07-24T14:35:41;6.40;;;4.15;;
17686;SDS011;8962;52.538;13.266;2023-07-24T14:38:10;6.63;;;4.30;;
17686;SDS011;8962;52.538;13.266;2023-07-24T14:40:38;14.75;;;8.18;;
17686;SDS011;8962;52.538;13.266;2023-07-24T14:43:08;6.70;;;3.88;;
17686;SDS011;8962;52.538;13.266;2023-07-24T14:45:37;4.15;;;3.20;;
17686;SDS011;8962;52.538;13.266;2023-07-24T14:48:06;5.85;;;3.40;;
17686;SDS011;8962;52.538;13.266;2023-07-24T14:50:35;5.32;;;3.15;;
17686;SDS011;8962;52.538;13.266;2023-07-24T14:53:03;6.25;;;3.33;;
17686;SDS011;8962;52.538;13.266;2023-07-24T14:55:35;5.05;;;3.63;;
17686;SDS011;8962;52.538;13.266;2023-07-24T14:58:03;5.22;;;3.22;;